Castelo, Brazil
Current Conditions -  °F | °C
As of 10:00 PM on Tuesday 21 Oct 2014 (Local Time) from SBVT Reporting Station
Light Rain Light Rain  
Wind Chill: 70°   Ceiling: 1000
Heat Index: 70°   Visibility: 1.8mi
Dew Point: 64°   Wind: 14mph
Humidity: 83%   Direction: 200°SSW
Pressure: NA   Gusts: NA
Location:  20.6°S, 41.18°W
Report Text: SBVT 220000Z 20012KT 3000 -RA BR FEW005 BKN010 BKN080 21/18 Q1020
Loading
Personal Weather Stations






























Interactive Weather Map
Tropical Storm Tracking
New forecast layout! Learn more

10-Day Weather Forecast

Advertisements
Track Severe Weather on mobile